Time;durP1;ratioP1;P1;durP2;ratioP2;P2;SDS_P1;SDS_P2;PMS_P1;PMS_P2;Temp;Humidity;BMP_temperature;BMP_pressure;BME280_temperature;BME280_humidity;BME280_pressure;Samples;Min_cycle;Max_cycle;Signal;HPM_P1;HPM_P2
2021/08/12 00:01:16;;;;;;;;;20.50;18.25;;;;;22.54;59.19;101547.09;5062333;28;45226;-64
2021/08/12 00:03:41;;;;;;;;;19.00;14.75;;;;;22.51;59.42;101552.59;5062323;28;45286;-64
2021/08/12 00:06:06;;;;;;;;;21.75;19.25;;;;;22.46;60.10;101553.75;5061106;28;45453;-65
2021/08/12 00:08:32;;;;;;;;;22.50;20.50;;;;;22.41;59.92;101544.38;5059473;28;45387;-64
2021/08/12 00:10:57;;;;;;;;;23.75;22.25;;;;;22.40;60.13;101543.53;5059642;28;45636;-65
2021/08/12 00:13:23;;;;;;;;;25.75;23.00;;;;;22.36;60.29;101536.75;5058851;28;45377;-65
2021/08/12 00:15:48;;;;;;;;;22.25;20.75;;;;;22.33;60.39;101531.63;5057968;28;45623;-65
2021/08/12 00:18:14;;;;;;;;;25.75;24.00;;;;;22.30;60.75;101528.34;5058789;28;46329;-63
2021/08/12 00:20:40;;;;;;;;;29.75;24.75;;;;;22.27;60.72;101533.84;5057258;28;45441;-63
2021/08/12 00:23:06;;;;;;;;;27.75;26.75;;;;;22.22;61.60;101536.75;5059437;28;45400;-64
2021/08/12 00:25:31;;;;;;;;;28.50;22.75;;;;;22.20;61.50;101537.81;5059342;28;45457;-65
2021/08/12 00:27:57;;;;;;;;;27.50;25.50;;;;;22.17;61.96;101534.41;5058985;28;45636;-64
2021/08/12 00:30:22;;;;;;;;;22.00;22.00;;;;;22.12;61.85;101530.34;5056392;28;45527;-64
2021/08/12 00:32:48;;;;;;;;;28.00;23.75;;;;;22.07;62.16;101524.50;5058637;28;45319;-66
2021/08/12 00:35:14;;;;;;;;;17.75;17.00;;;;;22.02;62.81;101537.97;5058261;28;45354;-67
2021/08/12 00:37:40;;;;;;;;;21.75;20.75;;;;;21.97;63.28;101529.50;5058359;28;45485;-68
2021/08/12 00:40:06;;;;;;;;;25.00;19.00;;;;;21.92;63.57;101520.16;5057567;28;45299;-68
2021/08/12 00:42:31;;;;;;;;;19.25;19.25;;;;;21.85;63.25;101520.53;5067268;28;45430;-69
2021/08/12 00:44:57;;;;;;;;;20.50;18.75;;;;;21.83;63.16;101527.72;5064694;28;45311;-67
2021/08/12 00:47:23;;;;;;;;;17.75;16.50;;;;;21.79;62.60;101526.19;5061153;28;45215;-69
2021/08/12 00:49:48;;;;;;;;;15.25;15.25;;;;;21.78;63.09;101532.44;5060841;28;45218;-68
2021/08/12 00:52:14;;;;;;;;;21.25;17.50;;;;;21.78;63.48;101526.28;5060222;28;45393;-68
2021/08/12 00:54:40;;;;;;;;;19.50;17.50;;;;;21.79;63.20;101525.34;5061294;28;45275;-69
2021/08/12 00:57:08;;;;;;;;;18.50;17.50;;;;;21.78;63.28;101510.41;5060883;28;45445;-69
2021/08/12 00:59:38;;;;;;;;;20.50;16.75;;;;;21.78;62.97;101511.25;5061603;28;45666;-69
2021/08/12 01:02:10;;;;;;;;;22.00;17.50;;;;;21.77;62.84;101498.13;5058850;28;45489;-70
2021/08/12 01:04:42;;;;;;;;;22.00;18.75;;;;;21.76;63.10;101514.94;5060820;28;45236;-69
2021/08/12 01:07:26;;;;;;;;;16.50;14.75;;;;;21.72;63.15;101509.00;5054429;28;46379;-70
2021/08/12 01:10:08;;;;;;;;;20.00;19.25;;;;;21.70;63.44;101510.03;5058655;28;45925;-69
2021/08/12 01:12:57;;;;;;;;;21.25;15.00;;;;;21.66;63.14;101508.53;5060360;28;45377;-69
2021/08/12 01:15:33;;;;;;;;;20.25;17.25;;;;;21.63;63.36;101519.31;5060722;28;45275;-71
2021/08/12 01:18:10;;;;;;;;;21.50;16.75;;;;;21.61;63.85;101519.38;5060364;28;45302;-69
2021/08/12 01:21:08;;;;;;;;;20.25;17.25;;;;;21.60;64.67;101524.75;5060906;28;45605;-70
2021/08/12 01:23:35;;;;;;;;;20.00;17.00;;;;;21.48;65.01;101521.09;5061458;28;45426;-70
2021/08/12 01:26:03;;;;;;;;;19.00;16.00;;;;;21.42;65.63;101526.72;5060799;28;45302;-69
2021/08/12 01:28:32;;;;;;;;;18.00;15.75;;;;;21.38;65.22;101526.06;5060985;28;45289;-68
2021/08/12 01:31:18;;;;;;;;;14.75;14.50;;;;;21.34;64.95;101529.84;5060765;28;45304;-68
2021/08/12 01:34:19;;;;;;;;;15.75;14.50;;;;;21.28;64.79;101526.72;5060942;28;45234;-68
2021/08/12 01:36:47;;;;;;;;;11.75;10.75;;;;;21.22;64.54;101519.97;5038406;28;45429;-68
2021/08/12 01:39:15;;;;;;;;;14.50;13.25;;;;;21.13;64.97;101509.94;5060886;28;45247;-68
2021/08/12 01:41:44;;;;;;;;;18.75;15.75;;;;;21.15;64.82;101521.28;5059955;28;45730;-68
2021/08/12 01:44:12;;;;;;;;;9.25;7.00;;;;;21.10;65.07;101531.28;5070958;28;45338;-68
2021/08/12 01:46:38;;;;;;;;;15.25;11.50;;;;;21.04;65.53;101521.06;5060400;28;45475;-68
2021/08/12 01:49:05;;;;;;;;;14.75;12.75;;;;;21.03;65.70;101529.94;5060220;28;46368;-68
2021/08/12 01:51:33;;;;;;;;;13.50;11.25;;;;;20.95;65.39;101527.72;5060420;28;45271;-68
2021/08/12 01:54:00;;;;;;;;;11.00;11.00;;;;;20.88;65.03;101524.59;5060686;28;45351;-68
2021/08/12 01:56:27;;;;;;;;;12.25;12.00;;;;;20.83;65.80;101528.47;5060993;28;45256;-68
2021/08/12 01:58:56;;;;;;;;;12.75;12.50;;;;;20.73;65.70;101514.06;5060333;28;46196;-68
2021/08/12 02:01:22;;;;;;;;;16.00;12.75;;;;;20.75;66.20;101520.09;5060722;28;45346;-68
2021/08/12 02:03:49;;;;;;;;;14.25;8.75;;;;;20.69;65.82;101523.97;5075563;28;45454;-67
2021/08/12 02:06:14;;;;;;;;;12.75;10.25;;;;;20.66;66.63;101521.50;5060194;28;45207;-67
2021/08/12 02:08:40;;;;;;;;;10.50;9.50;;;;;20.61;67.07;101523.53;5060235;28;45264;-67
2021/08/12 02:11:05;;;;;;;;;13.50;13.50;;;;;20.58;67.19;101523.72;5060563;28;45443;-67
2021/08/12 02:13:31;;;;;;;;;11.25;11.00;;;;;20.55;68.43;101521.25;5060319;28;45208;-67
2021/08/12 02:15:57;;;;;;;;;17.25;12.00;;;;;20.51;67.82;101517.06;5059895;28;45233;-67
2021/08/12 02:18:22;;;;;;;;;13.50;11.00;;;;;20.47;67.93;101513.78;5059196;28;45485;-67
2021/08/12 02:20:57;;;;;;;;;16.75;11.25;;;;;20.48;68.08;101509.34;5059886;28;45354;-67
2021/08/12 02:23:28;;;;;;;;;15.25;12.50;;;;;20.47;68.22;101513.78;5058750;28;45310;-67
2021/08/12 02:26:02;;;;;;;;;11.00;8.75;;;;;20.43;68.54;101511.41;5060074;28;45410;-67
2021/08/12 02:28:30;;;;;;;;;12.75;10.75;;;;;20.43;68.92;101508.75;5059921;28;45430;-68
2021/08/12 02:30:57;;;;;;;;;12.00;11.75;;;;;20.41;68.79;101506.16;5058481;28;45203;-67
2021/08/12 02:33:27;;;;;;;;;14.00;14.00;;;;;20.41;68.34;101508.81;5060056;28;45307;-67
2021/08/12 02:35:53;;;;;;;;;15.00;13.25;;;;;20.40;69.31;101509.72;5059431;28;45319;-67
2021/08/12 02:38:21;;;;;;;;;12.25;12.25;;;;;20.37;69.07;101515.16;5059520;28;46676;-67
2021/08/12 02:40:53;;;;;;;;;17.50;14.00;;;;;20.38;69.43;101519.50;5060210;28;45245;-67
2021/08/12 02:43:20;;;;;;;;;15.00;11.50;;;;;20.36;69.91;101526.66;5069483;28;45348;-67
2021/08/12 02:45:47;;;;;;;;;13.75;11.50;;;;;20.31;71.15;101526.94;5059736;28;45457;-67
2021/08/12 02:48:13;;;;;;;;;12.25;12.25;;;;;20.26;69.85;101520.22;5058362;28;46984;-67
2021/08/12 02:50:42;;;;;;;;;13.75;11.75;;;;;20.24;70.11;101528.22;5059321;28;45293;-67
2021/08/12 02:53:08;;;;;;;;;12.75;11.25;;;;;20.21;70.61;101525.72;5059423;28;45401;-67
2021/08/12 02:55:36;;;;;;;;;17.50;14.00;;;;;20.20;70.34;101518.75;5059917;28;45413;-65
2021/08/12 02:58:03;;;;;;;;;14.50;11.75;;;;;20.19;70.43;101519.69;5059427;28;46340;-63
2021/08/12 03:00:29;;;;;;;;;15.00;13.00;;;;;20.19;70.51;101516.19;5059679;28;45827;-63
2021/08/12 03:02:55;;;;;;;;;16.75;12.75;;;;;20.19;70.00;101522.31;5059824;28;45272;-63
2021/08/12 03:05:21;;;;;;;;;13.25;11.75;;;;;20.20;70.42;101526.66;5059456;28;45330;-63
2021/08/12 03:07:48;;;;;;;;;18.25;17.75;;;;;20.19;70.38;101522.31;5059199;28;45967;-63
2021/08/12 03:10:18;;;;;;;;;16.25;12.75;;;;;20.20;70.54;101520.53;5059524;28;45412;-64
2021/08/12 03:12:43;;;;;;;;;15.25;14.75;;;;;20.15;71.13;101520.78;5058792;28;45438;-64
2021/08/12 03:15:11;;;;;;;;;19.00;15.00;;;;;20.11;70.33;101516.63;5059243;28;45497;-65
2021/08/12 03:17:38;;;;;;;;;14.25;11.25;;;;;20.06;71.08;101518.69;5057946;28;45318;-64
2021/08/12 03:20:05;;;;;;;;;17.75;14.00;;;;;20.03;72.08;101510.94;5058888;28;45346;-68
2021/08/12 03:22:30;;;;;;;;;15.25;13.75;;;;;19.99;71.29;101507.59;5058468;28;45590;-64
2021/08/12 03:24:56;;;;;;;;;14.50;13.50;;;;;19.95;73.20;101510.47;5059059;28;45519;-67
2021/08/12 03:27:21;;;;;;;;;16.50;14.00;;;;;19.90;72.05;101515.16;5058056;28;46333;-68
2021/08/12 03:29:47;;;;;;;;;13.00;13.00;;;;;19.85;72.53;101519.84;5061009;28;45237;-62
2021/08/12 03:32:13;;;;;;;;;16.75;14.50;;;;;19.86;72.06;101518.91;5059497;28;45349;-66
2021/08/12 03:34:38;;;;;;;;;15.00;12.25;;;;;19.84;73.56;101526.91;5060197;28;45368;-67
2021/08/12 03:37:05;;;;;;;;;14.50;14.00;;;;;19.78;75.28;101513.16;5061757;28;46291;-67
2021/08/12 03:39:31;;;;;;;;;14.75;11.25;;;;;19.75;72.85;101512.41;5060976;28;45330;-67
2021/08/12 03:41:57;;;;;;;;;14.50;12.25;;;;;19.72;72.27;101509.94;5063460;28;45390;-67
2021/08/12 03:44:23;;;;;;;;;15.50;13.00;;;;;19.72;71.72;101511.72;5070775;28;45513;-67
2021/08/12 03:46:48;;;;;;;;;15.50;14.50;;;;;19.71;72.20;101505.59;5062012;28;46030;-67
2021/08/12 03:49:14;;;;;;;;;16.00;14.75;;;;;19.69;72.27;101499.56;5062336;28;45325;-67
2021/08/12 03:51:39;;;;;;;;;17.50;16.75;;;;;19.71;72.51;101502.97;5062128;28;45434;-67
2021/08/12 03:54:04;;;;;;;;;19.00;16.00;;;;;19.73;71.95;101500.22;5062404;28;45346;-73
2021/08/12 03:56:30;;;;;;;;;14.25;14.00;;;;;19.72;73.35;101496.75;5062150;28;45734;-70
2021/08/12 03:58:55;;;;;;;;;18.00;15.25;;;;;19.72;72.27;101488.84;5062300;28;45393;-68
2021/08/12 04:01:20;;;;;;;;;17.00;15.75;;;;;19.64;72.78;101493.69;5053040;28;45341;-68
2021/08/12 04:03:46;;;;;;;;;15.00;14.50;;;;;19.68;72.36;101499.63;5053017;28;45616;-69
2021/08/12 04:06:12;;;;;;;;;13.25;12.50;;;;;19.64;72.39;101490.19;5058155;28;46344;-68
2021/08/12 04:08:38;;;;;;;;;14.75;14.50;;;;;19.69;73.08;101499.56;5062265;28;45293;-67
2021/08/12 04:11:03;;;;;;;;;15.50;13.25;;;;;19.68;73.24;101497.84;5062425;28;45512;-67
2021/08/12 04:13:28;;;;;;;;;19.00;14.75;;;;;19.69;72.09;101491.63;5062038;28;45447;-69
2021/08/12 04:15:55;;;;;;;;;15.25;14.50;;;;;19.67;71.93;101487.38;5061559;28;46020;-71
2021/08/12 04:18:20;;;;;;;;;16.25;15.75;;;;;19.67;71.63;101482.97;5062248;28;45803;-66
2021/08/12 04:20:45;;;;;;;;;10.25;10.25;;;;;19.65;72.19;101484.84;5061601;28;45274;-68
2021/08/12 04:23:11;;;;;;;;;15.25;14.50;;;;;19.64;72.81;101493.69;5060423;28;45304;-64
2021/08/12 04:25:36;;;;;;;;;20.00;16.75;;;;;19.58;72.74;101488.72;5060372;28;46884;-67
2021/08/12 04:28:02;;;;;;;;;18.25;14.75;;;;;19.58;73.05;101490.50;5061899;28;45298;-68
2021/08/12 04:30:28;;;;;;;;;15.75;14.25;;;;;19.57;73.30;101486.16;5061828;28;45364;-66
2021/08/12 04:32:53;;;;;;;;;16.75;14.75;;;;;19.55;73.36;101483.59;5060617;28;45458;-68
2021/08/12 04:35:19;;;;;;;;;16.00;14.75;;;;;19.55;73.25;101469.56;5058769;28;45352;-67
2021/08/12 04:37:45;;;;;;;;;18.75;16.50;;;;;19.58;73.67;101475.53;5059246;28;45318;-67
2021/08/12 04:40:13;;;;;;;;;18.25;15.75;;;;;19.61;73.40;101478.00;5058411;28;45390;-66
2021/08/12 04:42:38;;;;;;;;;18.50;16.50;;;;;19.63;73.27;101470.88;5059091;28;45512;-67
2021/08/12 04:45:04;;;;;;;;;17.50;17.25;;;;;19.69;73.07;101480.25;5058831;28;46399;-65
2021/08/12 04:47:30;;;;;;;;;16.50;15.50;;;;;19.72;73.30;101472.16;5059535;28;45339;-65
2021/08/12 04:49:57;;;;;;;;;18.50;16.75;;;;;19.67;73.25;101461.00;5061421;28;45493;-67
2021/08/12 04:52:22;;;;;;;;;18.00;16.25;;;;;19.69;73.86;101467.06;5061180;28;45584;-67
2021/08/12 04:54:47;;;;;;;;;20.75;15.75;;;;;19.67;73.64;101474.19;5060841;28;46282;-65
2021/08/12 04:57:13;;;;;;;;;17.50;16.00;;;;;19.66;73.36;101476.00;5061128;28;45278;-63
2021/08/12 04:59:38;;;;;;;;;21.75;19.00;;;;;19.66;73.70;101475.13;5059678;28;45414;-64
2021/08/12 05:02:04;;;;;;;;;16.50;16.00;;;;;19.67;73.79;101480.31;5060836;28;45262;-64
2021/08/12 05:04:29;;;;;;;;;18.25;16.00;;;;;19.65;73.96;101470.78;5059280;28;47024;-64
2021/08/12 05:06:55;;;;;;;;;20.00;16.50;;;;;19.70;73.56;101476.66;5059437;28;45391;-65
2021/08/12 05:09:20;;;;;;;;;17.50;15.75;;;;;19.74;73.45;101475.56;5061219;28;45342;-64
2021/08/12 05:11:45;;;;;;;;;19.50;19.50;;;;;19.79;73.55;101470.03;5059790;28;45323;-65
2021/08/12 05:14:10;;;;;;;;;19.75;17.50;;;;;19.82;73.11;101478.63;5060814;28;45168;-64
2021/08/12 05:16:36;;;;;;;;;21.00;17.25;;;;;19.79;73.21;101462.13;5060317;28;45353;-64
2021/08/12 05:19:01;;;;;;;;;29.00;19.50;;;;;19.85;73.02;101472.34;5060405;28;45421;-64
2021/08/12 05:21:27;;;;;;;;;17.25;15.75;;;;;19.87;72.57;101473.13;5060400;28;45488;-66
2021/08/12 05:23:52;;;;;;;;;26.25;21.00;;;;;19.88;72.80;101474.81;5060356;28;45313;-66
2021/08/12 05:26:17;;;;;;;;;21.75;16.25;;;;;19.88;72.28;101477.47;5060910;28;45373;-66
2021/08/12 05:28:43;;;;;;;;;28.75;21.75;;;;;19.92;72.14;101476.34;5060634;28;45218;-66
2021/08/12 05:31:08;;;;;;;;;23.25;20.00;;;;;19.93;72.37;101484.19;5060575;28;45563;-66
2021/08/12 05:33:34;;;;;;;;;22.50;16.25;;;;;19.92;72.08;101489.53;5059432;28;45451;-66
2021/08/12 05:36:00;;;;;;;;;22.75;18.75;;;;;19.95;72.12;101492.84;5060482;28;45752;-66
2021/08/12 05:38:26;;;;;;;;;20.00;15.75;;;;;19.97;71.78;101495.41;5060837;28;45323;-66
2021/08/12 05:40:51;;;;;;;;;16.00;13.75;;;;;19.98;72.31;101500.59;5060759;28;45313;-65
2021/08/12 05:43:17;;;;;;;;;19.50;16.25;;;;;19.99;72.44;101504.09;5060319;28;45292;-66
2021/08/12 05:45:42;;;;;;;;;21.75;19.25;;;;;20.03;72.41;101501.22;5060260;28;45330;-66
2021/08/12 05:48:07;;;;;;;;;24.00;18.00;;;;;20.13;71.71;101506.84;5060776;28;45497;-64
2021/08/12 05:50:33;;;;;;;;;20.75;18.50;;;;;20.16;72.15;101504.03;5060143;28;45355;-64
2021/08/12 05:52:58;;;;;;;;;22.50;20.25;;;;;20.13;71.41;101503.34;5059878;28;45399;-64
2021/08/12 05:55:23;;;;;;;;;17.75;15.75;;;;;20.11;72.12;101503.44;5058845;28;45422;-63
2021/08/12 05:57:48;;;;;;;;;23.00;18.50;;;;;20.12;72.31;101505.13;5059095;28;45378;-63
2021/08/12 06:00:14;;;;;;;;;22.75;17.25;;;;;20.10;72.26;101508.81;5058869;28;45317;-63
2021/08/12 06:02:39;;;;;;;;;21.25;15.75;;;;;20.07;72.02;101508.97;5060285;28;45789;-63
2021/08/12 06:05:05;;;;;;;;;14.75;12.25;;;;;20.05;72.19;101509.91;5059974;28;45297;-63
2021/08/12 06:07:30;;;;;;;;;26.75;19.75;;;;;20.08;71.41;101498.31;5060104;28;45211;-63
2021/08/12 06:09:55;;;;;;;;;20.00;16.00;;;;;20.04;71.67;101497.66;5059782;28;45209;-63
2021/08/12 06:12:21;;;;;;;;;23.50;17.00;;;;;20.08;71.63;101508.03;5059935;28;46188;-64
2021/08/12 06:14:46;;;;;;;;;14.00;13.50;;;;;20.02;71.67;101502.16;5059714;28;45169;-63
2021/08/12 06:17:11;;;;;;;;;16.25;15.00;;;;;20.04;71.59;101504.72;5058274;28;45407;-63
2021/08/12 06:19:37;;;;;;;;;17.25;15.00;;;;;20.08;71.50;101500.97;5059694;28;45210;-66
2021/08/12 06:22:03;;;;;;;;;17.00;14.75;;;;;20.16;70.97;101489.97;5059917;28;45435;-65
2021/08/12 06:24:28;;;;;;;;;18.50;15.25;;;;;20.29;70.85;101498.94;5059779;28;45195;-65
2021/08/12 06:26:53;;;;;;;;;18.75;15.00;;;;;20.41;70.19;101498.25;5060113;28;45342;-65
2021/08/12 06:29:19;;;;;;;;;23.50;17.25;;;;;20.56;70.23;101499.19;5059751;28;45622;-65
2021/08/12 06:31:44;;;;;;;;;15.25;14.75;;;;;20.68;69.68;101501.13;5060019;28;45335;-65
2021/08/12 06:34:09;;;;;;;;;13.50;13.00;;;;;20.68;69.27;101495.84;5059148;28;45317;-65
2021/08/12 06:36:35;;;;;;;;;15.00;14.00;;;;;20.66;69.76;101505.66;5059639;28;45293;-65
2021/08/12 06:39:00;;;;;;;;;18.00;15.00;;;;;20.66;69.27;101508.28;5059507;28;45325;-65
2021/08/12 06:41:27;;;;;;;;;16.00;14.50;;;;;20.71;69.33;101514.16;5059875;28;45580;-65
2021/08/12 06:43:52;;;;;;;;;14.00;13.25;;;;;20.81;68.82;101517.94;5059567;28;45361;-65
2021/08/12 06:46:17;;;;;;;;;16.75;15.00;;;;;20.88;68.96;101521.97;5059632;28;45748;-65
2021/08/12 06:48:42;;;;;;;;;14.75;14.50;;;;;20.93;68.18;101519.03;5058969;28;45775;-65
2021/08/12 06:51:08;;;;;;;;;17.75;15.00;;;;;20.96;68.25;101511.78;5058327;28;45451;-65
2021/08/12 06:53:33;;;;;;;;;19.25;14.00;;;;;21.07;67.97;101520.88;5059007;28;45314;-65
2021/08/12 06:55:59;;;;;;;;;13.75;11.75;;;;;21.16;67.87;101529.09;5058252;28;45384;-65
2021/08/12 06:58:24;;;;;;;;;15.25;14.25;;;;;21.23;67.63;101525.19;5059215;28;45582;-65
2021/08/12 07:00:49;;;;;;;;;11.00;10.25;;;;;21.30;67.62;101530.97;5059161;28;46212;-66
2021/08/12 07:03:15;;;;;;;;;17.50;14.75;;;;;21.35;67.21;101528.91;5059481;28;45253;-64
2021/08/12 07:05:40;;;;;;;;;18.75;14.00;;;;;21.39;66.84;101516.34;5062679;28;45511;-65
2021/08/12 07:08:08;;;;;;;;;17.25;15.50;;;;;21.44;66.59;101512.50;5062119;28;45270;-66
2021/08/12 07:10:34;;;;;;;;;15.00;13.75;;;;;21.52;66.45;101515.50;5062760;28;45287;-65
2021/08/12 07:12:59;;;;;;;;;15.25;14.00;;;;;21.62;66.44;101512.28;5062295;28;45324;-64
2021/08/12 07:15:25;;;;;;;;;15.50;15.50;;;;;21.73;65.78;101515.13;5061673;28;45316;-64
2021/08/12 07:17:50;;;;;;;;;15.75;14.00;;;;;21.75;66.03;101506.16;5060497;28;45450;-64
2021/08/12 07:20:16;;;;;;;;;20.50;15.75;;;;;21.75;65.73;101497.38;5062388;28;45496;-64
2021/08/12 07:22:41;;;;;;;;;12.75;12.75;;;;;21.84;65.89;101502.97;5062918;28;45294;-64
2021/08/12 07:25:07;;;;;;;;;11.25;9.75;;;;;21.88;65.42;101498.31;5062877;28;45286;-64
2021/08/12 07:27:33;;;;;;;;;17.75;17.00;;;;;21.83;65.53;101500.41;5062208;28;45458;-64
2021/08/12 07:29:58;;;;;;;;;17.50;15.25;;;;;21.86;65.54;101506.34;5062403;28;45479;-64
2021/08/12 07:32:23;;;;;;;;;13.75;13.25;;;;;21.93;65.66;101498.88;5062180;28;45318;-64
2021/08/12 07:34:49;;;;;;;;;17.50;13.75;;;;;22.12;65.63;101503.88;5061339;28;45403;-65
2021/08/12 07:37:14;;;;;;;;;21.50;18.00;;;;;22.27;65.32;101496.78;5062139;28;45238;-65
2021/08/12 07:39:39;;;;;;;;;20.00;20.00;;;;;22.46;64.87;101499.94;5062509;28;45291;-63
2021/08/12 07:42:05;;;;;;;;;18.50;16.25;;;;;22.58;63.99;101504.41;5062392;28;45195;-62
2021/08/12 07:44:30;;;;;;;;;20.00;17.50;;;;;22.66;63.86;101496.81;5062442;28;45331;-62
2021/08/12 07:46:55;;;;;;;;;15.00;13.25;;;;;22.82;63.80;101499.31;5061975;28;45174;-64
2021/08/12 07:49:21;;;;;;;;;18.75;16.75;;;;;22.91;62.96;101496.06;5062303;28;46021;-63
2021/08/12 07:51:47;;;;;;;;;17.00;12.25;;;;;22.94;62.78;101501.16;5062827;28;45205;-64
2021/08/12 07:54:13;;;;;;;;;18.00;15.25;;;;;23.02;62.56;101497.97;5062308;28;45177;-64
2021/08/12 07:56:38;;;;;;;;;16.00;13.25;;;;;23.16;62.23;101499.69;5062162;28;45172;-64
2021/08/12 07:59:03;;;;;;;;;16.00;12.50;;;;;23.25;62.73;101494.63;5060675;28;48905;-64
2021/08/12 08:01:29;;;;;;;;;15.00;12.25;;;;;23.32;62.44;101495.91;5062194;28;45185;-64
2021/08/12 08:03:56;;;;;;;;;14.50;13.25;;;;;23.38;61.71;101494.63;5061987;28;45417;-64
2021/08/12 08:06:21;;;;;;;;;18.50;15.00;;;;;23.40;61.65;101492.69;5061679;28;45411;-64
2021/08/12 08:08:46;;;;;;;;;14.00;12.75;;;;;23.40;61.09;101489.19;5062065;28;46082;-64
2021/08/12 08:11:14;;;;;;;;;15.50;14.25;;;;;23.45;61.31;101487.09;5061708;28;45419;-64
2021/08/12 08:13:40;;;;;;;;;13.00;13.00;;;;;23.50;61.20;101490.28;5061879;28;45247;-64
2021/08/12 08:16:05;;;;;;;;;14.00;13.75;;;;;23.54;61.67;101481.97;5060312;28;45310;-62
2021/08/12 08:18:32;;;;;;;;;16.50;14.00;;;;;23.68;61.53;101483.72;5061374;28;45334;-62
2021/08/12 08:20:58;;;;;;;;;14.50;12.00;;;;;23.80;61.47;101477.50;5061477;28;45595;-62
2021/08/12 08:23:23;;;;;;;;;17.25;16.50;;;;;23.92;60.89;101484.63;5061869;28;45255;-63
2021/08/12 08:25:48;;;;;;;;;14.00;13.25;;;;;24.07;61.26;101479.16;5061499;28;45440;-63
2021/08/12 08:28:14;;;;;;;;;16.75;16.00;;;;;24.15;60.54;101484.75;5061546;28;46137;-63
2021/08/12 08:30:39;;;;;;;;;16.00;15.00;;;;;24.23;60.54;101488.56;5061372;28;45360;-63
2021/08/12 08:33:06;;;;;;;;;18.00;15.75;;;;;24.29;60.42;101489.97;5061235;28;45337;-62
2021/08/12 08:35:31;;;;;;;;;14.50;13.25;;;;;24.34;59.32;101486.94;5060945;28;45443;-63
2021/08/12 08:37:58;;;;;;;;;17.75;13.25;;;;;24.40;59.68;101486.50;5060523;28;45328;-64
2021/08/12 08:40:24;;;;;;;;;16.50;14.75;;;;;24.49;59.85;101493.81;5060966;28;45275;-63
2021/08/12 08:42:50;;;;;;;;;14.00;10.50;;;;;24.65;58.88;101496.19;5061518;28;45447;-63
2021/08/12 08:45:21;;;;;;;;;13.75;11.75;;;;;24.78;58.41;101494.28;5060668;28;45442;-63
2021/08/12 08:47:48;;;;;;;;;13.50;12.50;;;;;24.85;58.87;101485.75;5059827;28;48162;-62
2021/08/12 08:50:18;;;;;;;;;16.75;13.75;;;;;25.00;58.15;101482.88;5060962;28;45375;-65
2021/08/12 08:52:45;;;;;;;;;14.50;12.50;;;;;25.09;58.27;101476.88;5060986;28;45488;-65
2021/08/12 08:55:20;;;;;;;;;17.00;12.25;;;;;25.25;57.77;101476.56;5061254;28;45351;-65
2021/08/12 08:57:55;;;;;;;;;17.50;12.00;;;;;25.32;56.84;101483.09;5061316;28;45433;-65
2021/08/12 09:00:21;;;;;;;;;14.75;11.50;;;;;25.37;56.41;101491.53;5061042;28;45569;-65
2021/08/12 09:02:48;;;;;;;;;15.00;12.50;;;;;25.33;56.67;101496.28;5061465;28;45397;-64
2021/08/12 09:05:14;;;;;;;;;14.00;11.50;;;;;25.36;56.35;101500.50;5060687;28;45330;-64
2021/08/12 09:07:40;;;;;;;;;17.00;15.75;;;;;25.41;56.56;101500.97;5060885;28;45286;-65
2021/08/12 09:10:06;;;;;;;;;11.75;11.50;;;;;25.54;55.96;101500.88;5059023;28;45311;-66
2021/08/12 09:12:31;;;;;;;;;17.25;15.25;;;;;25.59;56.33;101502.22;5061011;28;45217;-64
2021/08/12 09:15:02;;;;;;;;;10.50;9.00;;;;;25.67;55.48;101509.63;5059765;28;45247;-67
2021/08/12 09:17:29;;;;;;;;;12.25;11.75;;;;;25.68;55.31;101506.00;5060055;28;45591;-63
2021/08/12 09:20:15;;;;;;;;;13.50;11.25;;;;;25.71;55.98;101511.94;5060583;28;45619;-63
2021/08/12 09:22:51;;;;;;;;;18.25;13.00;;;;;25.83;56.02;101515.47;5059502;27;45423;-64
2021/08/12 09:25:27;;;;;;;;;15.50;11.25;;;;;25.92;55.21;101497.88;5060654;28;45577;-63
2021/08/12 09:28:14;;;;;;;;;15.25;13.75;;;;;26.04;54.16;101497.75;5058992;28;46394;-64
2021/08/12 09:30:42;;;;;;;;;14.75;14.75;;;;;26.02;54.59;101498.81;5059609;28;45361;-63
2021/08/12 09:33:13;;;;;;;;;14.75;12.75;;;;;26.00;53.85;101500.78;5060258;28;45273;-64
2021/08/12 09:35:38;;;;;;;;;15.50;13.25;;;;;26.01;54.24;101491.81;5059681;28;45517;-63
2021/08/12 09:38:09;;;;;;;;;24.25;21.00;;;;;26.05;53.89;101498.59;5059907;28;46389;-64
2021/08/12 09:40:35;;;;;;;;;19.00;14.75;;;;;26.13;53.16;101503.31;5059148;28;45172;-64
2021/08/12 09:43:04;;;;;;;;;13.00;11.25;;;;;26.25;54.19;101507.66;5060206;28;45342;-63
2021/08/12 09:45:31;;;;;;;;;14.50;14.50;;;;;26.41;54.10;101499.25;5058526;28;45796;-65
2021/08/12 09:48:13;;;;;;;;;16.50;14.75;;;;;26.54;53.83;101499.94;5060354;28;45445;-63
2021/08/12 09:50:40;;;;;;;;;18.50;14.00;;;;;26.60;52.72;101499.44;5060154;28;45277;-63
2021/08/12 09:53:06;;;;;;;;;16.00;13.25;;;;;26.56;50.90;101498.00;5059989;28;45374;-63
2021/08/12 09:55:39;;;;;;;;;14.25;13.00;;;;;26.50;50.87;101493.19;5059990;28;45328;-63
2021/08/12 09:58:06;;;;;;;;;15.25;12.25;;;;;26.51;50.78;101492.22;5059942;28;45384;-64
2021/08/12 10:00:35;;;;;;;;;15.25;12.75;;;;;26.53;51.18;101491.09;5059961;28;45475;-63
2021/08/12 10:03:18;;;;;;;;;14.75;14.50;;;;;26.55;51.21;101490.97;5059814;28;45303;-66
2021/08/12 10:05:44;;;;;;;;;13.25;11.25;;;;;26.62;51.17;101484.16;5058349;28;45406;-63
2021/08/12 10:08:09;;;;;;;;;15.25;14.75;;;;;26.81;51.27;101475.44;5059643;28;45391;-64
2021/08/12 10:10:35;;;;;;;;;28.50;18.75;;;;;26.90;51.28;101480.03;5060094;28;45217;-69
2021/08/12 10:13:01;;;;;;;;;17.00;15.50;;;;;27.05;51.29;101485.94;5059614;28;45314;-64
2021/08/12 10:15:30;;;;;;;;;12.00;10.75;;;;;27.16;48.74;101488.50;5059698;28;46603;-73
2021/08/12 10:17:57;;;;;;;;;10.75;10.75;;;;;27.14;49.05;101490.47;5057784;28;47473;-71
2021/08/12 10:20:31;;;;;;;;;16.50;15.00;;;;;27.14;49.57;101487.81;5059466;28;45530;-75
2021/08/12 10:23:00;;;;;;;;;16.25;13.00;;;;;27.19;49.62;101482.91;5059418;28;45321;-62
2021/08/12 10:25:26;;;;;;;;;15.25;13.00;;;;;27.28;48.28;101484.81;5059829;28;45541;-63
2021/08/12 10:27:56;;;;;;;;;11.75;11.00;;;;;27.36;48.59;101484.97;5059272;28;45703;-63
2021/08/12 10:30:23;;;;;;;;;17.75;10.75;;;;;27.43;48.84;101483.47;5059687;28;45718;-64
2021/08/12 10:33:00;;;;;;;;;15.50;10.00;;;;;27.56;47.93;101484.09;5059637;28;45272;-60
2021/08/12 10:35:28;;;;;;;;;14.00;14.00;;;;;27.66;48.21;101475.31;5059303;28;45365;-59
2021/08/12 10:37:54;;;;;;;;;14.00;11.75;;;;;27.73;48.39;101473.78;5059261;28;45440;-61
2021/08/12 10:40:22;;;;;;;;;16.25;13.75;;;;;27.89;48.27;101474.13;5058826;28;45676;-62
2021/08/12 10:42:49;;;;;;;;;14.75;12.00;;;;;28.02;47.71;101473.84;5059590;28;45256;-62
2021/08/12 10:45:19;;;;;;;;;15.00;12.50;;;;;28.11;46.29;101473.88;5059092;28;45449;-61
2021/08/12 10:47:48;;;;;;;;;11.50;10.75;;;;;28.17;46.14;101473.31;5059486;28;45364;-62
2021/08/12 10:50:23;;;;;;;;;14.50;12.75;;;;;28.21;46.48;101475.72;5059165;28;45551;-59
2021/08/12 10:53:14;;;;;;;;;16.75;14.75;;;;;28.23;45.28;101466.56;5059091;28;45357;-61
2021/08/12 10:55:48;;;;;;;;;17.50;14.50;;;;;28.19;45.14;101479.38;5035576;28;45612;-59
2021/08/12 10:58:23;;;;;;;;;15.50;12.00;;;;;28.13;45.71;101473.75;5058857;28;45295;-62
2021/08/12 11:00:52;;;;;;;;;18.75;13.75;;;;;28.24;46.39;101478.13;5059457;28;45239;-64
2021/08/12 11:03:32;;;;;;;;;17.50;13.00;;;;;28.45;46.38;101465.53;5059681;28;45266;-61
2021/08/12 11:06:09;;;;;;;;;15.50;12.50;;;;;28.61;46.24;101468.44;5059033;28;45259;-61
2021/08/12 11:11:20;;;;;;;;;23.25;19.75;;;;;28.95;45.40;101470.72;5058589;28;45499;-60
2021/08/12 11:13:46;;;;;;;;;12.50;12.00;;;;;29.02;43.06;101463.78;5058189;28;45279;-62